createdAt,value
2022-09-09T00:00:25.948Z,20.25
2022-09-09T00:03:04.809Z,20.23
2022-09-09T00:05:47.082Z,20.18
2022-09-09T00:08:20.876Z,20.12
2022-09-09T00:10:50.812Z,20.09
2022-09-09T00:13:21.958Z,20.07
2022-09-09T00:16:05.255Z,20.05
2022-09-09T00:19:01.943Z,19.99
2022-09-09T00:21:38.206Z,19.95
2022-09-09T00:24:33.314Z,19.92
2022-09-09T00:27:34.051Z,19.87
2022-09-09T00:30:15.154Z,19.83
2022-09-09T00:32:46.298Z,19.81
2022-09-09T00:35:23.369Z,19.78
2022-09-09T00:37:55.223Z,19.77
2022-09-09T00:40:25.361Z,19.75
2022-09-09T00:43:18.227Z,19.73
2022-09-09T00:46:27.295Z,19.67
2022-09-09T00:49:06.607Z,19.61
2022-09-09T00:52:05.599Z,19.55
2022-09-09T00:54:47.397Z,19.49
2022-09-09T00:57:20.627Z,19.45
2022-09-09T00:59:50.304Z,19.40
2022-09-09T01:02:32.687Z,19.36
2022-09-09T01:05:07.348Z,19.32
2022-09-09T01:07:35.428Z,19.31
2022-09-09T01:10:04.630Z,19.33
2022-09-09T01:12:39.360Z,19.35
2022-09-09T01:15:11.224Z,19.37
2022-09-09T01:18:02.746Z,19.35
2022-09-09T01:20:40.372Z,19.36
2022-09-09T01:23:36.080Z,19.38
2022-09-09T01:26:28.316Z,19.39
2022-09-09T01:28:56.088Z,19.41
2022-09-09T01:31:28.779Z,19.42
2022-09-09T01:33:56.140Z,19.40
2022-09-09T01:36:34.863Z,19.39
2022-09-09T01:39:03.089Z,19.38
2022-09-09T01:41:31.428Z,19.37
2022-09-09T01:43:58.783Z,19.37
2022-09-09T01:46:26.082Z,19.35
2022-09-09T01:48:57.083Z,19.33
2022-09-09T01:51:23.882Z,19.32
2022-09-09T01:53:50.777Z,19.32
2022-09-09T01:56:56.867Z,19.31
2022-09-09T01:59:48.474Z,19.31
2022-09-09T02:02:20.131Z,19.29
2022-09-09T02:04:59.578Z,19.29
2022-09-09T02:07:43.424Z,19.29
2022-09-09T02:10:12.638Z,19.29
2022-09-09T02:12:42.353Z,19.26
2022-09-09T02:15:16.358Z,19.25
2022-09-09T02:17:43.927Z,19.25
2022-09-09T02:20:15.492Z,19.27
2022-09-09T02:22:45.380Z,19.26
2022-09-09T02:25:15.626Z,19.24
2022-09-09T02:27:42.583Z,19.21
2022-09-09T02:30:10.303Z,19.16
2022-09-09T02:32:37.511Z,19.14
2022-09-09T02:35:09.893Z,19.12
2022-09-09T02:37:38.992Z,19.09
2022-09-09T02:40:07.192Z,19.04
2022-09-09T02:42:41.858Z,18.96
2022-09-09T02:45:10.338Z,18.88
2022-09-09T02:47:40.144Z,18.80
2022-09-09T02:50:19.032Z,18.71
2022-09-09T02:53:05.237Z,18.69
2022-09-09T02:55:58.605Z,18.65
2022-09-09T02:58:26.467Z,18.58
2022-09-09T03:00:54.251Z,18.50
2022-09-09T03:03:21.996Z,18.44
2022-09-09T03:05:48.862Z,18.42
2022-09-09T03:08:15.688Z,18.40
2022-09-09T03:10:42.738Z,18.32
2022-09-09T03:13:10.405Z,18.27
2022-09-09T03:15:38.484Z,18.24
2022-09-09T03:18:05.420Z,18.19
2022-09-09T03:20:33.085Z,18.15
2022-09-09T03:23:00.548Z,18.06
2022-09-09T03:25:27.599Z,17.94
2022-09-09T03:27:56.057Z,17.95
2022-09-09T03:30:24.126Z,17.91
2022-09-09T03:32:52.219Z,17.81
2022-09-09T03:35:19.599Z,17.75
2022-09-09T03:37:46.555Z,17.63
2022-09-09T03:40:13.573Z,17.63
2022-09-09T03:42:40.663Z,17.60
2022-09-09T03:45:10.159Z,17.51
2022-09-09T03:47:37.021Z,17.52
2022-09-09T03:50:05.750Z,17.50
2022-09-09T03:52:32.537Z,17.57
2022-09-09T03:54:59.538Z,17.59
2022-09-09T03:57:26.470Z,17.61
2022-09-09T03:59:53.220Z,17.60
2022-09-09T04:02:20.142Z,17.54
2022-09-09T04:04:47.324Z,17.55
2022-09-09T04:07:14.383Z,17.61
2022-09-09T04:09:41.223Z,17.68
2022-09-09T04:12:08.072Z,17.76
2022-09-09T04:14:35.020Z,17.84
2022-09-09T04:17:01.851Z,17.94
2022-09-09T04:19:29.267Z,18.03
2022-09-09T04:21:56.180Z,18.10
2022-09-09T04:24:23.337Z,18.18
2022-09-09T04:26:50.195Z,18.28
2022-09-09T04:29:17.386Z,18.44
2022-09-09T04:31:44.270Z,18.50
2022-09-09T04:34:11.435Z,18.58
2022-09-09T04:36:41.511Z,18.68
2022-09-09T04:39:08.535Z,18.70
2022-09-09T04:41:36.670Z,18.73
2022-09-09T04:44:04.075Z,18.80
2022-09-09T04:46:30.853Z,18.91
2022-09-09T04:48:57.600Z,19.02
2022-09-09T04:51:24.551Z,19.13
2022-09-09T04:53:52.217Z,19.25
2022-09-09T04:56:19.165Z,19.34
2022-09-09T04:58:47.339Z,19.48
2022-09-09T05:01:16.353Z,19.63
2022-09-09T05:03:43.388Z,19.79
2022-09-09T05:06:12.579Z,19.95
2022-09-09T05:08:40.142Z,20.12
2022-09-09T05:11:19.479Z,20.32
2022-09-09T05:13:47.038Z,20.51
2022-09-09T05:16:15.266Z,20.64
2022-09-09T05:18:47.316Z,20.75
2022-09-09T05:21:15.655Z,20.90
2022-09-09T05:23:42.499Z,20.98
2022-09-09T05:26:17.049Z,21.05
2022-09-09T05:28:44.587Z,21.23
2022-09-09T05:31:15.107Z,21.37
2022-09-09T05:33:44.161Z,21.46
2022-09-09T05:36:14.447Z,21.59
2022-09-09T05:38:41.803Z,21.73
2022-09-09T05:41:08.854Z,21.87
2022-09-09T05:43:37.242Z,21.93
2022-09-09T05:46:09.301Z,22.06
2022-09-09T05:48:40.977Z,22.18
2022-09-09T05:51:09.648Z,22.35
2022-09-09T05:53:36.617Z,22.52
2022-09-09T05:56:08.656Z,22.71
2022-09-09T05:58:35.761Z,22.84
2022-09-09T06:01:11.111Z,22.94
2022-09-09T06:03:39.264Z,23.07
2022-09-09T06:06:08.008Z,23.22
2022-09-09T06:08:35.629Z,23.41
2022-09-09T06:11:07.080Z,23.60
2022-09-09T06:13:34.559Z,23.79
2022-09-09T06:16:02.039Z,23.97
2022-09-09T06:18:29.187Z,24.09
2022-09-09T06:20:59.983Z,24.26
2022-09-09T06:23:27.631Z,24.47
2022-09-09T06:26:06.876Z,24.68
2022-09-09T06:28:37.852Z,24.87
2022-09-09T06:31:11.266Z,25.02
2022-09-09T06:33:42.630Z,25.24
2022-09-09T06:36:16.362Z,25.36
2022-09-09T06:38:43.920Z,25.48
2022-09-09T06:41:11.786Z,25.59
2022-09-09T06:43:38.627Z,25.72
2022-09-09T06:46:06.727Z,25.86
2022-09-09T06:48:33.956Z,26.02
2022-09-09T06:51:19.123Z,26.17
2022-09-09T06:53:47.122Z,26.33
2022-09-09T06:56:32.401Z,26.50
2022-09-09T06:59:02.089Z,26.62
2022-09-09T07:01:30.313Z,26.80
2022-09-09T07:03:58.667Z,27.02
2022-09-09T07:06:30.206Z,27.30
2022-09-09T07:08:58.994Z,27.44
2022-09-09T07:11:31.063Z,27.52
2022-09-09T07:13:58.420Z,27.61
2022-09-09T07:16:26.056Z,27.77
2022-09-09T07:18:53.743Z,27.90
2022-09-09T07:21:22.133Z,28.03
2022-09-09T07:23:49.891Z,28.20
2022-09-09T07:26:21.542Z,28.46
2022-09-09T07:28:48.871Z,28.60
2022-09-09T07:31:27.416Z,28.65
2022-09-09T07:33:55.177Z,28.65
2022-09-09T07:36:23.246Z,28.65
2022-09-09T07:38:53.158Z,28.71
2022-09-09T07:41:33.510Z,28.78
2022-09-09T07:44:01.402Z,28.91
2022-09-09T07:46:30.044Z,29.05
2022-09-09T07:48:57.962Z,29.20
2022-09-09T07:51:36.981Z,29.28
2022-09-09T07:54:06.326Z,29.32
2022-09-09T07:56:34.382Z,29.34
2022-09-09T07:59:02.378Z,29.45
2022-09-09T08:01:32.178Z,29.63
2022-09-09T08:04:05.170Z,29.75
2022-09-09T08:06:36.697Z,29.72
2022-09-09T08:09:05.181Z,29.75
2022-09-09T08:11:39.031Z,29.82
2022-09-09T08:14:11.366Z,29.84
2022-09-09T08:16:45.183Z,29.85
2022-09-09T08:19:13.152Z,29.90
2022-09-09T08:21:45.228Z,30.03
2022-09-09T08:24:15.450Z,30.19
2022-09-09T08:26:45.725Z,30.34
2022-09-09T08:29:16.216Z,30.45
2022-09-09T08:31:45.607Z,30.57
2022-09-09T08:34:14.097Z,30.66
2022-09-09T08:36:44.307Z,30.80
2022-09-09T08:39:15.458Z,31.00
2022-09-09T08:42:21.127Z,31.12
2022-09-09T08:45:13.499Z,31.02
2022-09-09T08:47:54.255Z,30.93
2022-09-09T08:50:22.759Z,30.96
2022-09-09T08:53:23.264Z,31.05
2022-09-09T08:56:05.214Z,31.10
2022-09-09T08:58:37.838Z,31.20
2022-09-09T09:01:29.345Z,31.31
2022-09-09T09:04:31.711Z,31.55
2022-09-09T09:07:13.837Z,31.74
2022-09-09T09:10:01.721Z,31.79
2022-09-09T09:12:44.030Z,31.92
2022-09-09T09:15:28.318Z,32.02
2022-09-09T09:17:58.719Z,32.07
2022-09-09T09:21:01.221Z,32.13
2022-09-09T09:23:36.470Z,32.35
2022-09-09T09:26:03.701Z,32.55
2022-09-09T09:28:32.015Z,32.71
2022-09-09T09:31:10.493Z,32.79
2022-09-09T09:33:51.586Z,32.91
2022-09-09T09:36:18.431Z,33.05
2022-09-09T09:41:48.183Z,33.01
2022-09-09T09:44:26.087Z,33.07
2022-09-09T09:46:53.016Z,33.21
2022-09-09T09:49:19.981Z,33.33
2022-09-09T09:51:48.259Z,33.36
2022-09-09T09:54:30.072Z,33.28
2022-09-09T09:56:57.107Z,33.25
2022-09-09T09:59:39.360Z,33.30
2022-09-09T10:02:27.734Z,33.29
2022-09-09T10:05:27.489Z,33.11
2022-09-09T10:08:10.627Z,33.03
2022-09-09T10:10:51.260Z,33.04
2022-09-09T10:13:25.077Z,32.99
2022-09-09T10:16:19.642Z,32.98
2022-09-09T10:18:58.943Z,32.97
2022-09-09T10:21:47.816Z,32.85
2022-09-09T10:24:20.286Z,32.71
2022-09-09T10:27:14.065Z,32.54
2022-09-09T10:30:10.703Z,32.41
2022-09-09T10:32:47.887Z,32.34
2022-09-09T10:35:41.047Z,32.24
2022-09-09T10:38:31.078Z,32.17
2022-09-09T10:40:57.980Z,32.19
2022-09-09T10:43:34.846Z,32.28
2022-09-09T10:46:18.257Z,32.35
2022-09-09T10:48:52.404Z,32.38
2022-09-09T10:51:24.517Z,32.32
2022-09-09T10:54:09.789Z,32.23
2022-09-09T10:56:37.208Z,32.17
2022-09-09T10:59:12.138Z,32.16
2022-09-09T11:02:01.613Z,32.22
2022-09-09T11:04:33.520Z,32.49
2022-09-09T11:07:01.344Z,32.48
2022-09-09T11:09:30.472Z,32.48
2022-09-09T11:11:59.063Z,32.66
2022-09-09T11:14:36.922Z,32.66
2022-09-09T11:17:25.888Z,32.76
2022-09-09T11:19:53.137Z,32.82
2022-09-09T11:22:39.826Z,32.83
2022-09-09T11:25:11.563Z,32.81
2022-09-09T11:27:54.530Z,32.81
2022-09-09T11:33:27.539Z,32.56
2022-09-09T11:36:09.549Z,32.41
2022-09-09T11:38:47.671Z,32.25
2022-09-09T11:41:20.867Z,32.10
2022-09-09T11:43:51.603Z,32.03
2022-09-09T11:46:36.774Z,31.90
2022-09-09T11:49:08.458Z,31.76
2022-09-09T11:51:48.879Z,31.63
2022-09-09T11:54:30.969Z,31.61
2022-09-09T11:56:58.419Z,31.60
2022-09-09T11:59:34.886Z,31.42
2022-09-09T12:02:33.019Z,31.31
2022-09-09T12:05:16.937Z,31.20
2022-09-09T12:07:59.432Z,31.11
2022-09-09T12:10:39.880Z,30.95
2022-09-09T12:13:16.554Z,30.76
2022-09-09T12:15:51.797Z,30.76
2022-09-09T12:18:42.516Z,30.73
2022-09-09T12:21:19.704Z,30.70
2022-09-09T12:24:00.246Z,30.63
2022-09-09T12:26:37.932Z,30.65
2022-09-09T12:29:34.818Z,30.66
2022-09-09T12:32:07.883Z,30.64
2022-09-09T12:35:04.318Z,30.50
2022-09-09T12:37:39.167Z,30.37
2022-09-09T12:40:20.228Z,30.25
2022-09-09T12:42:48.098Z,30.19
2022-09-09T12:45:18.444Z,30.08
2022-09-09T12:48:00.840Z,30.03
2022-09-09T12:50:33.974Z,29.98
2022-09-09T12:53:05.791Z,29.98
2022-09-09T12:55:35.748Z,29.94
2022-09-09T12:58:06.167Z,29.90
2022-09-09T13:00:35.034Z,29.98
2022-09-09T13:03:04.947Z,30.06
2022-09-09T13:05:37.936Z,30.11
2022-09-09T13:08:08.894Z,30.11
2022-09-09T13:10:52.841Z,30.04
2022-09-09T13:13:27.930Z,29.93
2022-09-09T13:16:04.484Z,29.88
2022-09-09T13:18:43.395Z,29.85
2022-09-09T13:21:11.454Z,29.73
2022-09-09T13:23:39.154Z,29.69
2022-09-09T13:26:09.194Z,29.69
2022-09-09T13:28:36.807Z,29.73
2022-09-09T13:31:06.109Z,29.82
2022-09-09T13:33:38.429Z,29.94
2022-09-09T13:36:10.046Z,30.02
2022-09-09T13:38:54.403Z,30.06
2022-09-09T13:41:34.359Z,29.95
2022-09-09T13:44:01.822Z,29.83
2022-09-09T13:46:34.809Z,29.68
2022-09-09T13:49:02.884Z,29.49
2022-09-09T13:51:40.789Z,29.32
2022-09-09T13:54:08.557Z,29.17
2022-09-09T13:56:36.427Z,29.03
2022-09-09T13:59:04.505Z,28.94
2022-09-09T14:01:32.544Z,28.84
2022-09-09T14:04:00.140Z,28.73
2022-09-09T14:06:27.605Z,28.62
2022-09-09T14:08:55.985Z,28.51
2022-09-09T14:11:23.342Z,28.47
2022-09-09T14:13:53.056Z,28.46
2022-09-09T14:16:20.071Z,28.51
2022-09-09T14:18:47.572Z,28.58
2022-09-09T14:21:14.412Z,28.55
2022-09-09T14:23:41.788Z,28.52
2022-09-09T14:26:09.546Z,28.49
2022-09-09T14:28:54.384Z,28.42
2022-09-09T14:31:23.012Z,28.30
2022-09-09T14:33:49.853Z,28.20
2022-09-09T14:36:16.905Z,28.06
2022-09-09T14:38:44.367Z,27.94
2022-09-09T14:41:17.986Z,27.84
2022-09-09T14:43:46.044Z,27.74
2022-09-09T14:46:15.143Z,27.68
2022-09-09T14:48:42.459Z,27.65
2022-09-09T14:51:11.011Z,27.55
2022-09-09T14:53:38.881Z,27.50
2022-09-09T14:56:07.728Z,27.44
2022-09-09T14:58:36.005Z,27.39
2022-09-09T15:01:13.337Z,27.36
2022-09-09T15:03:42.184Z,27.36
2022-09-09T15:06:11.099Z,27.31
2022-09-09T15:08:42.285Z,27.28
2022-09-09T15:11:14.187Z,27.25
2022-09-09T15:13:42.378Z,27.20
2022-09-09T15:16:11.706Z,27.15
2022-09-09T15:18:43.992Z,27.07
2022-09-09T15:21:15.635Z,27.01
2022-09-09T15:23:42.654Z,26.97
2022-09-09T15:26:10.319Z,26.93
2022-09-09T15:28:38.799Z,26.90
2022-09-09T15:31:18.706Z,26.82
2022-09-09T15:34:14.802Z,26.75
2022-09-09T15:36:45.402Z,26.70
2022-09-09T15:39:14.033Z,26.65
2022-09-09T15:41:40.933Z,26.62
2022-09-09T15:44:08.053Z,26.54
2022-09-09T15:46:39.610Z,26.44
2022-09-09T15:49:07.911Z,26.38
2022-09-09T15:51:43.603Z,26.32
2022-09-09T15:54:14.384Z,26.24
2022-09-09T15:56:42.162Z,26.17
2022-09-09T15:59:09.515Z,26.10
2022-09-09T16:01:37.527Z,26.07
2022-09-09T16:04:05.152Z,26.04
2022-09-09T16:06:32.102Z,25.97
2022-09-09T16:08:59.456Z,25.93
2022-09-09T16:11:28.248Z,25.87
2022-09-09T16:13:55.809Z,25.83
2022-09-09T16:16:27.980Z,25.80
2022-09-09T16:18:56.462Z,25.77
2022-09-09T16:21:30.332Z,25.76
2022-09-09T16:23:58.243Z,25.73
2022-09-09T16:26:25.391Z,25.68
2022-09-09T16:28:52.338Z,25.63
2022-09-09T16:31:21.405Z,25.60
2022-09-09T16:33:48.890Z,25.58
2022-09-09T16:36:20.546Z,25.57
2022-09-09T16:38:47.388Z,25.54
2022-09-09T16:41:15.177Z,25.55
2022-09-09T16:43:42.403Z,25.49
2022-09-09T16:46:19.811Z,25.46
2022-09-09T16:48:47.758Z,25.44
2022-09-09T16:51:17.060Z,25.40
2022-09-09T16:53:44.411Z,25.38
2022-09-09T16:56:18.632Z,25.35
2022-09-09T16:58:49.670Z,25.28
2022-09-09T17:01:16.664Z,25.24
2022-09-09T17:03:43.767Z,25.21
2022-09-09T17:06:14.610Z,25.19
2022-09-09T17:08:44.888Z,25.18
2022-09-09T17:11:15.560Z,25.12
2022-09-09T17:13:46.339Z,25.10
2022-09-09T17:16:15.426Z,25.06
2022-09-09T17:18:43.460Z,25.03
2022-09-09T17:21:15.063Z,25.00
2022-09-09T17:23:42.268Z,24.98
2022-09-09T17:26:11.369Z,24.97
2022-09-09T17:28:39.564Z,24.95
2022-09-09T17:31:11.444Z,24.92
2022-09-09T17:33:40.050Z,24.89
2022-09-09T17:36:12.331Z,24.87
2022-09-09T17:38:39.420Z,24.83
2022-09-09T17:41:07.980Z,24.81
2022-09-09T17:43:34.932Z,24.82
2022-09-09T17:46:15.160Z,24.80
2022-09-09T17:48:43.081Z,24.79
2022-09-09T17:51:12.273Z,24.77
2022-09-09T17:53:43.474Z,24.77
2022-09-09T17:56:11.606Z,24.76
2022-09-09T17:58:38.777Z,24.74
2022-09-09T18:01:10.349Z,24.73
2022-09-09T18:03:38.382Z,24.70
2022-09-09T18:06:05.958Z,24.68
2022-09-09T18:08:36.697Z,24.65
2022-09-09T18:11:04.366Z,24.63
2022-09-09T18:13:31.211Z,24.59
2022-09-09T18:15:58.858Z,24.56
2022-09-09T18:18:26.438Z,24.55
2022-09-09T18:21:01.875Z,24.53
2022-09-09T18:23:30.168Z,24.49
2022-09-09T18:25:59.162Z,24.55
2022-09-09T18:28:28.981Z,24.59
2022-09-09T18:30:56.015Z,24.59
2022-09-09T18:33:23.084Z,24.60
2022-09-09T18:35:50.036Z,24.62
2022-09-09T18:38:17.705Z,24.62
2022-09-09T18:40:44.587Z,24.62
2022-09-09T18:43:12.952Z,24.62
2022-09-09T18:45:39.783Z,24.59
2022-09-09T18:48:06.730Z,24.56
2022-09-09T18:50:34.371Z,24.56
2022-09-09T18:53:01.346Z,24.56
2022-09-09T18:55:29.322Z,24.55
2022-09-09T18:57:58.931Z,24.55
2022-09-09T19:00:26.593Z,24.55
2022-09-09T19:02:53.441Z,24.51
2022-09-09T19:05:22.917Z,24.49
2022-09-09T19:07:51.129Z,24.49
2022-09-09T19:10:18.100Z,24.48
2022-09-09T19:12:45.232Z,24.48
2022-09-09T19:15:12.279Z,24.46
2022-09-09T19:17:39.538Z,24.44
2022-09-09T19:20:09.201Z,24.42
2022-09-09T19:22:36.298Z,24.40
2022-09-09T19:25:04.165Z,24.41
2022-09-09T19:27:31.122Z,24.41
2022-09-09T19:29:58.365Z,24.40
2022-09-09T19:35:12.224Z,24.33
2022-09-09T19:37:38.967Z,24.30
2022-09-09T19:40:08.466Z,24.28
2022-09-09T19:42:35.425Z,24.28
2022-09-09T19:45:02.478Z,24.26
2022-09-09T19:47:29.529Z,24.25
2022-09-09T19:49:56.430Z,24.29
2022-09-09T19:52:23.327Z,24.30
2022-09-09T19:54:50.269Z,24.30
2022-09-09T19:57:17.122Z,24.28
2022-09-09T19:59:44.192Z,24.27
2022-09-09T20:02:13.507Z,24.26
2022-09-09T20:04:40.427Z,24.25
2022-09-09T20:07:07.880Z,24.21
2022-09-09T20:09:34.868Z,24.20
2022-09-09T20:12:01.968Z,24.21
2022-09-09T20:14:29.139Z,24.31
2022-09-09T20:16:56.601Z,24.37
2022-09-09T20:19:23.657Z,24.28
2022-09-09T20:21:52.258Z,24.20
2022-09-09T20:24:20.423Z,24.16
2022-09-09T20:26:48.407Z,24.13
2022-09-09T20:29:17.739Z,24.13
2022-09-09T20:31:45.369Z,24.12
2022-09-09T20:34:14.725Z,24.10
2022-09-09T20:36:42.031Z,24.07
2022-09-09T20:39:10.935Z,24.05
2022-09-09T20:41:38.798Z,24.01
2022-09-09T20:44:19.509Z,24.02
2022-09-09T20:46:48.321Z,24.01
2022-09-09T20:49:19.409Z,23.99
2022-09-09T20:51:47.278Z,23.98
2022-09-09T20:54:16.168Z,23.98
2022-09-09T20:56:43.508Z,23.99
2022-09-09T20:59:15.411Z,23.97
2022-09-09T21:01:42.420Z,23.97
2022-09-09T21:04:09.897Z,23.97
2022-09-09T21:06:37.362Z,23.97
2022-09-09T21:09:04.819Z,23.97
2022-09-09T21:11:32.760Z,23.97
2022-09-09T21:13:59.846Z,23.94
2022-09-09T21:16:28.016Z,23.92
2022-09-09T21:18:54.859Z,23.89
2022-09-09T21:21:21.707Z,23.87
2022-09-09T21:23:49.471Z,23.85
2022-09-09T21:26:18.378Z,23.83
2022-09-09T21:28:45.617Z,23.86
2022-09-09T21:31:16.362Z,23.93
2022-09-09T21:33:43.508Z,23.86
2022-09-09T21:36:11.234Z,23.89
2022-09-09T21:38:40.269Z,23.89
2022-09-09T21:41:09.064Z,23.77
2022-09-09T21:43:35.901Z,23.71
2022-09-09T21:46:13.638Z,23.68
2022-09-09T21:48:40.551Z,23.68
2022-09-09T21:51:09.597Z,23.68
2022-09-09T21:53:36.698Z,23.67
2022-09-09T21:56:09.855Z,23.66
2022-09-09T21:58:36.785Z,23.64
2022-09-09T22:01:14.898Z,23.63
2022-09-09T22:03:42.857Z,23.59
2022-09-09T22:06:11.673Z,23.57
2022-09-09T22:08:38.669Z,23.56
2022-09-09T22:11:10.801Z,23.56
2022-09-09T22:13:38.530Z,23.57
2022-09-09T22:16:09.532Z,23.55
2022-09-09T22:18:37.013Z,23.55
2022-09-09T22:21:11.830Z,23.54
2022-09-09T22:23:38.780Z,23.52
2022-09-09T22:26:06.035Z,23.54
2022-09-09T22:28:33.999Z,23.55
2022-09-09T22:31:01.214Z,23.55
2022-09-09T22:33:28.203Z,23.55
2022-09-09T22:35:55.051Z,23.48
2022-09-09T22:38:22.526Z,23.44
2022-09-09T22:40:49.769Z,23.42
2022-09-09T22:43:18.350Z,23.39
2022-09-09T22:45:45.919Z,23.36
2022-09-09T22:48:13.405Z,23.34
2022-09-09T22:50:42.531Z,23.28
2022-09-09T22:53:10.883Z,23.26
2022-09-09T22:55:37.704Z,23.24
2022-09-09T22:58:04.549Z,23.22
2022-09-09T23:00:31.495Z,23.21
2022-09-09T23:02:58.443Z,23.18
2022-09-09T23:05:27.699Z,23.16
2022-09-09T23:07:58.652Z,23.13
2022-09-09T23:10:25.815Z,23.12
2022-09-09T23:12:52.593Z,23.12
2022-09-09T23:15:19.979Z,23.11
2022-09-09T23:17:46.793Z,23.08
2022-09-09T23:20:13.769Z,23.08
2022-09-09T23:22:40.663Z,23.08
2022-09-09T23:25:07.938Z,23.06
2022-09-09T23:27:35.785Z,23.02
2022-09-09T23:30:02.770Z,22.99
2022-09-09T23:32:29.513Z,22.99
2022-09-09T23:34:56.665Z,23.01
2022-09-09T23:37:23.511Z,23.00
2022-09-09T23:39:50.387Z,22.99
2022-09-09T23:42:17.204Z,22.97
2022-09-09T23:44:44.053Z,22.95
2022-09-09T23:47:10.799Z,22.95
2022-09-09T23:49:40.518Z,22.94
2022-09-09T23:52:07.360Z,22.95
2022-09-09T23:54:34.723Z,22.96
2022-09-09T23:57:03.289Z,22.96
2022-09-09T23:59:31.281Z,22.97
